sensor_id;sensor_type;location;lat;lon;timestamp;P1;durP1;ratioP1;P2;durP2;ratioP2
55362;SDS011;41244;49.242;9.060;2023-08-06T00:00:22;5.70;;;5.20;;
55362;SDS011;41244;49.242;9.060;2023-08-06T00:02:49;6.18;;;5.25;;
55362;SDS011;41244;49.242;9.060;2023-08-06T00:05:15;7.60;;;4.43;;
55362;SDS011;41244;49.242;9.060;2023-08-06T00:07:46;5.43;;;4.78;;
55362;SDS011;41244;49.242;9.060;2023-08-06T00:10:15;5.07;;;4.35;;
55362;SDS011;41244;49.242;9.060;2023-08-06T00:12:42;5.30;;;4.55;;
55362;SDS011;41244;49.242;9.060;2023-08-06T00:15:09;4.65;;;4.20;;
55362;SDS011;41244;49.242;9.060;2023-08-06T00:17:35;5.40;;;4.60;;
55362;SDS011;41244;49.242;9.060;2023-08-06T00:20:02;5.25;;;4.45;;
55362;SDS011;41244;49.242;9.060;2023-08-06T00:22:29;5.70;;;5.00;;
55362;SDS011;41244;49.242;9.060;2023-08-06T00:25:00;7.47;;;4.80;;
55362;SDS011;41244;49.242;9.060;2023-08-06T00:27:26;5.57;;;4.32;;
55362;SDS011;41244;49.242;9.060;2023-08-06T00:29:52;5.88;;;4.88;;
55362;SDS011;41244;49.242;9.060;2023-08-06T00:32:18;8.82;;;5.18;;
55362;SDS011;41244;49.242;9.060;2023-08-06T00:34:43;5.28;;;4.78;;
55362;SDS011;41244;49.242;9.060;2023-08-06T00:37:09;5.95;;;4.50;;
55362;SDS011;41244;49.242;9.060;2023-08-06T00:39:35;5.88;;;5.15;;
55362;SDS011;41244;49.242;9.060;2023-08-06T00:42:01;6.65;;;4.97;;
55362;SDS011;41244;49.242;9.060;2023-08-06T00:44:26;5.40;;;4.90;;
55362;SDS011;41244;49.242;9.060;2023-08-06T00:46:52;5.75;;;5.15;;
55362;SDS011;41244;49.242;9.060;2023-08-06T00:49:18;6.20;;;4.63;;
55362;SDS011;41244;49.242;9.060;2023-08-06T00:51:44;6.28;;;4.70;;
55362;SDS011;41244;49.242;9.060;2023-08-06T00:54:10;5.53;;;4.90;;
55362;SDS011;41244;49.242;9.060;2023-08-06T00:56:35;5.85;;;4.60;;
55362;SDS011;41244;49.242;9.060;2023-08-06T00:59:03;5.30;;;4.15;;
55362;SDS011;41244;49.242;9.060;2023-08-06T01:01:30;6.25;;;4.93;;
55362;SDS011;41244;49.242;9.060;2023-08-06T01:03:56;5.50;;;4.45;;
55362;SDS011;41244;49.242;9.060;2023-08-06T01:06:25;5.40;;;4.78;;
55362;SDS011;41244;49.242;9.060;2023-08-06T01:09:19;8.13;;;4.38;;
55362;SDS011;41244;49.242;9.060;2023-08-06T01:15:01;5.90;;;4.40;;
55362;SDS011;41244;49.242;9.060;2023-08-06T01:17:31;5.90;;;4.30;;
55362;SDS011;41244;49.242;9.060;2023-08-06T01:19:57;5.38;;;4.47;;
55362;SDS011;41244;49.242;9.060;2023-08-06T01:22:23;6.65;;;5.18;;
55362;SDS011;41244;49.242;9.060;2023-08-06T01:24:49;8.02;;;4.50;;
55362;SDS011;41244;49.242;9.060;2023-08-06T01:30:12;6.20;;;4.80;;
55362;SDS011;41244;49.242;9.060;2023-08-06T01:32:43;6.32;;;5.00;;
55362;SDS011;41244;49.242;9.060;2023-08-06T01:35:11;5.63;;;4.88;;
55362;SDS011;41244;49.242;9.060;2023-08-06T01:37:40;5.60;;;5.10;;
55362;SDS011;41244;49.242;9.060;2023-08-06T01:40:10;7.13;;;5.10;;
55362;SDS011;41244;49.242;9.060;2023-08-06T01:42:37;8.02;;;5.40;;
55362;SDS011;41244;49.242;9.060;2023-08-06T01:45:03;5.50;;;5.00;;
55362;SDS011;41244;49.242;9.060;2023-08-06T01:47:30;5.93;;;5.30;;
55362;SDS011;41244;49.242;9.060;2023-08-06T01:49:56;6.50;;;5.20;;
55362;SDS011;41244;49.242;9.060;2023-08-06T01:52:22;6.18;;;5.57;;
55362;SDS011;41244;49.242;9.060;2023-08-06T01:54:47;6.13;;;5.45;;
55362;SDS011;41244;49.242;9.060;2023-08-06T01:57:13;5.90;;;5.13;;
55362;SDS011;41244;49.242;9.060;2023-08-06T01:59:39;5.88;;;5.05;;
55362;SDS011;41244;49.242;9.060;2023-08-06T02:02:05;6.82;;;4.90;;
55362;SDS011;41244;49.242;9.060;2023-08-06T02:04:30;7.70;;;5.60;;
55362;SDS011;41244;49.242;9.060;2023-08-06T02:06:56;6.13;;;5.63;;
55362;SDS011;41244;49.242;9.060;2023-08-06T02:09:22;6.47;;;5.40;;
55362;SDS011;41244;49.242;9.060;2023-08-06T02:11:48;6.57;;;5.55;;
55362;SDS011;41244;49.242;9.060;2023-08-06T02:14:13;6.63;;;5.82;;
55362;SDS011;41244;49.242;9.060;2023-08-06T02:16:39;6.90;;;5.70;;
55362;SDS011;41244;49.242;9.060;2023-08-06T02:19:05;8.93;;;5.93;;
55362;SDS011;41244;49.242;9.060;2023-08-06T02:21:31;6.00;;;5.40;;
55362;SDS011;41244;49.242;9.060;2023-08-06T02:23:56;6.70;;;6.00;;
55362;SDS011;41244;49.242;9.060;2023-08-06T02:26:22;7.32;;;5.68;;
55362;SDS011;41244;49.242;9.060;2023-08-06T02:28:48;7.50;;;5.15;;
55362;SDS011;41244;49.242;9.060;2023-08-06T02:31:14;6.95;;;5.30;;
55362;SDS011;41244;49.242;9.060;2023-08-06T02:33:39;5.78;;;5.22;;
55362;SDS011;41244;49.242;9.060;2023-08-06T02:36:05;6.70;;;5.38;;
55362;SDS011;41244;49.242;9.060;2023-08-06T02:38:31;6.03;;;5.10;;
55362;SDS011;41244;49.242;9.060;2023-08-06T02:40:57;7.55;;;5.93;;
55362;SDS011;41244;49.242;9.060;2023-08-06T02:43:23;5.57;;;5.00;;
55362;SDS011;41244;49.242;9.060;2023-08-06T02:45:49;6.53;;;5.45;;
55362;SDS011;41244;49.242;9.060;2023-08-06T02:48:14;6.43;;;5.82;;
55362;SDS011;41244;49.242;9.060;2023-08-06T02:50:41;6.93;;;5.07;;
55362;SDS011;41244;49.242;9.060;2023-08-06T02:53:07;6.13;;;5.43;;
55362;SDS011;41244;49.242;9.060;2023-08-06T02:55:34;11.02;;;6.15;;
55362;SDS011;41244;49.242;9.060;2023-08-06T02:58:00;8.07;;;6.10;;
55362;SDS011;41244;49.242;9.060;2023-08-06T03:00:27;6.30;;;5.70;;
55362;SDS011;41244;49.242;9.060;2023-08-06T03:02:53;6.53;;;5.93;;
55362;SDS011;41244;49.242;9.060;2023-08-06T03:05:18;6.10;;;5.50;;
55362;SDS011;41244;49.242;9.060;2023-08-06T03:07:44;5.68;;;5.18;;
55362;SDS011;41244;49.242;9.060;2023-08-06T03:10:10;6.93;;;5.25;;
55362;SDS011;41244;49.242;9.060;2023-08-06T03:12:36;5.82;;;5.22;;
55362;SDS011;41244;49.242;9.060;2023-08-06T03:15:02;6.18;;;4.75;;
55362;SDS011;41244;49.242;9.060;2023-08-06T03:17:28;5.90;;;4.72;;
55362;SDS011;41244;49.242;9.060;2023-08-06T03:19:54;5.95;;;5.00;;
55362;SDS011;41244;49.242;9.060;2023-08-06T03:22:19;7.88;;;4.68;;
55362;SDS011;41244;49.242;9.060;2023-08-06T03:24:45;5.75;;;5.15;;
55362;SDS011;41244;49.242;9.060;2023-08-06T03:27:11;5.45;;;4.45;;
55362;SDS011;41244;49.242;9.060;2023-08-06T03:29:36;7.07;;;4.47;;
55362;SDS011;41244;49.242;9.060;2023-08-06T03:32:02;4.15;;;3.85;;
55362;SDS011;41244;49.242;9.060;2023-08-06T03:34:28;7.50;;;4.65;;
55362;SDS011;41244;49.242;9.060;2023-08-06T03:36:54;6.78;;;4.30;;
55362;SDS011;41244;49.242;9.060;2023-08-06T03:39:20;6.20;;;4.15;;
55362;SDS011;41244;49.242;9.060;2023-08-06T03:41:45;4.88;;;4.15;;
55362;SDS011;41244;49.242;9.060;2023-08-06T03:44:11;4.75;;;4.03;;
55362;SDS011;41244;49.242;9.060;2023-08-06T03:46:37;6.05;;;3.90;;
55362;SDS011;41244;49.242;9.060;2023-08-06T03:49:03;5.72;;;3.78;;
55362;SDS011;41244;49.242;9.060;2023-08-06T03:51:28;4.88;;;3.80;;
55362;SDS011;41244;49.242;9.060;2023-08-06T03:53:54;4.15;;;3.55;;
55362;SDS011;41244;49.242;9.060;2023-08-06T03:56:20;5.57;;;4.10;;
55362;SDS011;41244;49.242;9.060;2023-08-06T03:58:45;4.30;;;3.72;;
55362;SDS011;41244;49.242;9.060;2023-08-06T04:01:11;4.47;;;3.67;;
55362;SDS011;41244;49.242;9.060;2023-08-06T04:03:37;6.50;;;4.07;;
55362;SDS011;41244;49.242;9.060;2023-08-06T04:06:03;5.22;;;3.60;;
55362;SDS011;41244;49.242;9.060;2023-08-06T04:08:29;5.75;;;3.25;;
55362;SDS011;41244;49.242;9.060;2023-08-06T04:10:55;6.28;;;3.38;;
55362;SDS011;41244;49.242;9.060;2023-08-06T04:13:20;4.72;;;2.95;;
55362;SDS011;41244;49.242;9.060;2023-08-06T04:15:46;5.18;;;3.13;;
55362;SDS011;41244;49.242;9.060;2023-08-06T04:18:12;4.95;;;3.45;;
55362;SDS011;41244;49.242;9.060;2023-08-06T04:20:47;4.43;;;3.42;;
55362;SDS011;41244;49.242;9.060;2023-08-06T04:23:14;7.88;;;3.45;;
55362;SDS011;41244;49.242;9.060;2023-08-06T04:25:40;5.78;;;3.40;;
55362;SDS011;41244;49.242;9.060;2023-08-06T04:28:06;3.70;;;3.38;;
55362;SDS011;41244;49.242;9.060;2023-08-06T04:30:32;7.18;;;3.33;;
55362;SDS011;41244;49.242;9.060;2023-08-06T04:32:58;9.77;;;3.83;;
55362;SDS011;41244;49.242;9.060;2023-08-06T04:35:24;8.40;;;3.78;;
55362;SDS011;41244;49.242;9.060;2023-08-06T04:37:50;14.75;;;3.78;;
55362;SDS011;41244;49.242;9.060;2023-08-06T04:40:15;5.50;;;2.97;;
55362;SDS011;41244;49.242;9.060;2023-08-06T04:42:41;6.20;;;3.20;;
55362;SDS011;41244;49.242;9.060;2023-08-06T04:45:07;6.30;;;3.22;;
55362;SDS011;41244;49.242;9.060;2023-08-06T04:47:33;7.30;;;3.30;;
55362;SDS011;41244;49.242;9.060;2023-08-06T04:49:59;7.18;;;3.05;;
55362;SDS011;41244;49.242;9.060;2023-08-06T04:52:25;5.10;;;2.80;;
55362;SDS011;41244;49.242;9.060;2023-08-06T04:54:53;7.88;;;3.20;;
55362;SDS011;41244;49.242;9.060;2023-08-06T04:57:20;7.25;;;2.70;;
55362;SDS011;41244;49.242;9.060;2023-08-06T04:59:46;5.15;;;3.35;;
55362;SDS011;41244;49.242;9.060;2023-08-06T05:02:11;3.97;;;2.80;;
55362;SDS011;41244;49.242;9.060;2023-08-06T05:04:37;4.93;;;2.90;;
55362;SDS011;41244;49.242;9.060;2023-08-06T05:07:03;4.82;;;2.90;;
55362;SDS011;41244;49.242;9.060;2023-08-06T05:09:30;8.43;;;3.47;;
55362;SDS011;41244;49.242;9.060;2023-08-06T05:11:56;5.28;;;2.65;;
55362;SDS011;41244;49.242;9.060;2023-08-06T05:14:22;7.30;;;2.70;;
55362;SDS011;41244;49.242;9.060;2023-08-06T05:16:47;7.40;;;3.00;;
55362;SDS011;41244;49.242;9.060;2023-08-06T05:19:13;5.85;;;2.80;;
55362;SDS011;41244;49.242;9.060;2023-08-06T05:21:39;6.32;;;2.70;;
55362;SDS011;41244;49.242;9.060;2023-08-06T05:24:05;4.43;;;2.75;;
55362;SDS011;41244;49.242;9.060;2023-08-06T05:26:30;6.95;;;2.80;;
55362;SDS011;41244;49.242;9.060;2023-08-06T05:28:56;6.78;;;3.00;;
55362;SDS011;41244;49.242;9.060;2023-08-06T05:31:22;4.53;;;2.50;;
55362;SDS011;41244;49.242;9.060;2023-08-06T05:33:48;6.07;;;2.50;;
55362;SDS011;41244;49.242;9.060;2023-08-06T05:36:13;7.65;;;3.00;;
55362;SDS011;41244;49.242;9.060;2023-08-06T05:38:39;3.50;;;2.60;;
55362;SDS011;41244;49.242;9.060;2023-08-06T05:41:05;6.40;;;2.90;;
55362;SDS011;41244;49.242;9.060;2023-08-06T05:43:31;5.30;;;2.53;;
55362;SDS011;41244;49.242;9.060;2023-08-06T05:45:56;5.35;;;2.90;;
55362;SDS011;41244;49.242;9.060;2023-08-06T05:48:22;6.55;;;2.70;;
55362;SDS011;41244;49.242;9.060;2023-08-06T05:50:49;6.47;;;2.60;;
55362;SDS011;41244;49.242;9.060;2023-08-06T05:53:16;6.82;;;3.22;;
55362;SDS011;41244;49.242;9.060;2023-08-06T05:55:42;4.45;;;3.25;;
55362;SDS011;41244;49.242;9.060;2023-08-06T05:58:08;5.35;;;2.50;;
55362;SDS011;41244;49.242;9.060;2023-08-06T06:00:34;7.93;;;2.30;;
55362;SDS011;41244;49.242;9.060;2023-08-06T06:03:00;4.88;;;2.50;;
55362;SDS011;41244;49.242;9.060;2023-08-06T06:05:26;4.80;;;2.53;;
55362;SDS011;41244;49.242;9.060;2023-08-06T06:07:52;6.55;;;2.80;;
55362;SDS011;41244;49.242;9.060;2023-08-06T06:10:18;3.22;;;2.33;;
55362;SDS011;41244;49.242;9.060;2023-08-06T06:12:44;4.47;;;2.40;;
55362;SDS011;41244;49.242;9.060;2023-08-06T06:15:09;4.35;;;2.70;;
55362;SDS011;41244;49.242;9.060;2023-08-06T06:17:35;4.30;;;2.40;;
55362;SDS011;41244;49.242;9.060;2023-08-06T06:20:01;3.90;;;2.47;;
55362;SDS011;41244;49.242;9.060;2023-08-06T06:22:29;4.80;;;3.25;;
55362;SDS011;41244;49.242;9.060;2023-08-06T06:24:55;4.10;;;2.50;;
55362;SDS011;41244;49.242;9.060;2023-08-06T06:27:21;2.70;;;2.25;;
55362;SDS011;41244;49.242;9.060;2023-08-06T06:29:46;2.78;;;2.13;;
55362;SDS011;41244;49.242;9.060;2023-08-06T06:32:12;3.60;;;2.35;;
55362;SDS011;41244;49.242;9.060;2023-08-06T06:34:38;2.55;;;2.03;;
55362;SDS011;41244;49.242;9.060;2023-08-06T06:37:04;5.88;;;2.75;;
55362;SDS011;41244;49.242;9.060;2023-08-06T06:39:30;3.17;;;2.17;;
55362;SDS011;41244;49.242;9.060;2023-08-06T06:41:55;2.92;;;2.05;;
55362;SDS011;41244;49.242;9.060;2023-08-06T06:44:21;4.68;;;2.20;;
55362;SDS011;41244;49.242;9.060;2023-08-06T06:46:47;2.55;;;2.08;;
55362;SDS011;41244;49.242;9.060;2023-08-06T06:49:13;10.00;;;2.58;;
55362;SDS011;41244;49.242;9.060;2023-08-06T06:51:38;2.60;;;2.00;;
55362;SDS011;41244;49.242;9.060;2023-08-06T06:54:04;4.93;;;2.65;;
55362;SDS011;41244;49.242;9.060;2023-08-06T06:56:30;7.15;;;3.03;;
55362;SDS011;41244;49.242;9.060;2023-08-06T06:58:56;3.75;;;2.67;;
55362;SDS011;41244;49.242;9.060;2023-08-06T07:01:21;2.30;;;1.92;;
55362;SDS011;41244;49.242;9.060;2023-08-06T07:03:47;2.08;;;1.92;;
55362;SDS011;41244;49.242;9.060;2023-08-06T07:06:13;5.53;;;2.13;;
55362;SDS011;41244;49.242;9.060;2023-08-06T07:08:40;6.35;;;2.20;;
55362;SDS011;41244;49.242;9.060;2023-08-06T07:11:06;4.00;;;2.13;;
55362;SDS011;41244;49.242;9.060;2023-08-06T07:13:33;2.30;;;2.00;;
55362;SDS011;41244;49.242;9.060;2023-08-06T07:15:59;2.67;;;2.00;;
55362;SDS011;41244;49.242;9.060;2023-08-06T07:18:25;1.98;;;1.65;;
55362;SDS011;41244;49.242;9.060;2023-08-06T07:20:51;2.95;;;2.20;;
55362;SDS011;41244;49.242;9.060;2023-08-06T07:23:21;2.50;;;1.70;;
55362;SDS011;41244;49.242;9.060;2023-08-06T07:25:50;3.67;;;1.83;;
55362;SDS011;41244;49.242;9.060;2023-08-06T07:28:16;2.92;;;1.60;;
55362;SDS011;41244;49.242;9.060;2023-08-06T07:30:43;2.22;;;1.83;;
55362;SDS011;41244;49.242;9.060;2023-08-06T07:33:09;11.32;;;2.22;;
55362;SDS011;41244;49.242;9.060;2023-08-06T07:35:35;2.33;;;1.48;;
55362;SDS011;41244;49.242;9.060;2023-08-06T07:38:01;1.55;;;1.45;;
55362;SDS011;41244;49.242;9.060;2023-08-06T07:40:28;2.15;;;1.67;;
55362;SDS011;41244;49.242;9.060;2023-08-06T07:42:54;2.72;;;1.40;;
55362;SDS011;41244;49.242;9.060;2023-08-06T07:45:20;2.53;;;1.58;;
55362;SDS011;41244;49.242;9.060;2023-08-06T07:47:46;1.30;;;1.20;;
55362;SDS011;41244;49.242;9.060;2023-08-06T07:50:12;10.57;;;5.65;;
55362;SDS011;41244;49.242;9.060;2023-08-06T07:52:38;2.42;;;1.30;;
55362;SDS011;41244;49.242;9.060;2023-08-06T07:55:04;1.60;;;1.50;;
55362;SDS011;41244;49.242;9.060;2023-08-06T07:57:31;1.90;;;1.50;;
55362;SDS011;41244;49.242;9.060;2023-08-06T07:59:58;3.20;;;1.38;;
55362;SDS011;41244;49.242;9.060;2023-08-06T08:02:24;1.20;;;1.20;;
55362;SDS011;41244;49.242;9.060;2023-08-06T08:04:50;1.83;;;1.30;;
55362;SDS011;41244;49.242;9.060;2023-08-06T08:07:16;1.38;;;1.30;;
55362;SDS011;41244;49.242;9.060;2023-08-06T08:09:42;1.73;;;1.20;;
55362;SDS011;41244;49.242;9.060;2023-08-06T08:12:08;2.25;;;1.80;;
55362;SDS011;41244;49.242;9.060;2023-08-06T08:14:33;2.42;;;1.60;;
55362;SDS011;41244;49.242;9.060;2023-08-06T08:17:04;3.35;;;1.58;;
55362;SDS011;41244;49.242;9.060;2023-08-06T08:19:33;1.85;;;1.55;;
55362;SDS011;41244;49.242;9.060;2023-08-06T08:21:58;3.95;;;1.65;;
55362;SDS011;41244;49.242;9.060;2023-08-06T08:24:25;2.75;;;1.58;;
55362;SDS011;41244;49.242;9.060;2023-08-06T08:26:51;4.15;;;2.30;;
55362;SDS011;41244;49.242;9.060;2023-08-06T08:29:17;1.55;;;1.45;;
55362;SDS011;41244;49.242;9.060;2023-08-06T08:31:44;1.30;;;1.30;;
55362;SDS011;41244;49.242;9.060;2023-08-06T08:34:10;1.70;;;1.60;;
55362;SDS011;41244;49.242;9.060;2023-08-06T08:36:36;1.50;;;1.40;;
55362;SDS011;41244;49.242;9.060;2023-08-06T08:39:02;1.75;;;1.55;;
55362;SDS011;41244;49.242;9.060;2023-08-06T08:41:30;6.80;;;5.60;;
55362;SDS011;41244;49.242;9.060;2023-08-06T08:43:56;3.42;;;1.45;;
55362;SDS011;41244;49.242;9.060;2023-08-06T08:46:25;2.58;;;1.20;;
55362;SDS011;41244;49.242;9.060;2023-08-06T08:48:52;2.35;;;1.58;;
55362;SDS011;41244;49.242;9.060;2023-08-06T08:51:19;1.13;;;1.10;;
55362;SDS011;41244;49.242;9.060;2023-08-06T08:53:44;1.35;;;1.20;;
55362;SDS011;41244;49.242;9.060;2023-08-06T08:56:11;1.88;;;1.50;;
55362;SDS011;41244;49.242;9.060;2023-08-06T08:58:38;1.70;;;1.60;;
55362;SDS011;41244;49.242;9.060;2023-08-06T09:01:04;3.13;;;1.20;;
55362;SDS011;41244;49.242;9.060;2023-08-06T09:03:30;3.97;;;1.83;;
55362;SDS011;41244;49.242;9.060;2023-08-06T09:05:56;1.63;;;1.52;;
55362;SDS011;41244;49.242;9.060;2023-08-06T09:08:24;1.42;;;1.25;;
55362;SDS011;41244;49.242;9.060;2023-08-06T09:10:55;0.88;;;0.75;;
55362;SDS011;41244;49.242;9.060;2023-08-06T09:13:22;1.02;;;1.02;;
55362;SDS011;41244;49.242;9.060;2023-08-06T09:15:48;0.82;;;0.82;;
55362;SDS011;41244;49.242;9.060;2023-08-06T09:18:21;0.80;;;0.80;;
55362;SDS011;41244;49.242;9.060;2023-08-06T09:20:52;0.75;;;0.75;;
55362;SDS011;41244;49.242;9.060;2023-08-06T09:23:18;2.75;;;2.47;;
55362;SDS011;41244;49.242;9.060;2023-08-06T09:25:45;2.38;;;1.05;;
55362;SDS011;41244;49.242;9.060;2023-08-06T09:28:11;0.80;;;0.80;;
55362;SDS011;41244;49.242;9.060;2023-08-06T09:30:37;0.93;;;0.93;;
55362;SDS011;41244;49.242;9.060;2023-08-06T09:33:03;0.82;;;0.82;;
55362;SDS011;41244;49.242;9.060;2023-08-06T09:35:39;0.77;;;0.77;;
55362;SDS011;41244;49.242;9.060;2023-08-06T09:38:05;0.98;;;0.90;;
55362;SDS011;41244;49.242;9.060;2023-08-06T09:40:32;1.13;;;0.98;;
55362;SDS011;41244;49.242;9.060;2023-08-06T09:42:58;1.50;;;1.40;;
55362;SDS011;41244;49.242;9.060;2023-08-06T09:45:42;2.38;;;1.48;;
55362;SDS011;41244;49.242;9.060;2023-08-06T09:48:09;3.22;;;2.47;;
55362;SDS011;41244;49.242;9.060;2023-08-06T09:50:36;15.93;;;8.98;;
55362;SDS011;41244;49.242;9.060;2023-08-06T09:53:04;2.05;;;1.70;;
55362;SDS011;41244;49.242;9.060;2023-08-06T09:55:31;1.60;;;1.50;;
55362;SDS011;41244;49.242;9.060;2023-08-06T09:57:58;4.93;;;4.38;;
55362;SDS011;41244;49.242;9.060;2023-08-06T10:00:24;1.63;;;1.60;;
55362;SDS011;41244;49.242;9.060;2023-08-06T10:02:51;1.58;;;1.42;;
55362;SDS011;41244;49.242;9.060;2023-08-06T10:05:21;1.23;;;1.13;;
55362;SDS011;41244;49.242;9.060;2023-08-06T10:07:48;1.35;;;1.25;;
55362;SDS011;41244;49.242;9.060;2023-08-06T10:10:15;1.25;;;1.20;;
55362;SDS011;41244;49.242;9.060;2023-08-06T10:12:43;1.40;;;1.30;;
55362;SDS011;41244;49.242;9.060;2023-08-06T10:15:14;1.27;;;1.20;;
55362;SDS011;41244;49.242;9.060;2023-08-06T10:17:43;0.93;;;0.93;;
55362;SDS011;41244;49.242;9.060;2023-08-06T10:20:10;1.33;;;1.23;;
55362;SDS011;41244;49.242;9.060;2023-08-06T10:22:37;1.27;;;1.27;;
55362;SDS011;41244;49.242;9.060;2023-08-06T10:25:09;1.23;;;1.17;;
55362;SDS011;41244;49.242;9.060;2023-08-06T10:27:39;1.75;;;1.10;;
55362;SDS011;41244;49.242;9.060;2023-08-06T10:30:27;1.35;;;1.35;;
55362;SDS011;41244;49.242;9.060;2023-08-06T10:35:28;1.23;;;1.13;;
55362;SDS011;41244;49.242;9.060;2023-08-06T10:38:09;1.90;;;1.10;;
55362;SDS011;41244;49.242;9.060;2023-08-06T10:40:37;1.73;;;1.42;;
55362;SDS011;41244;49.242;9.060;2023-08-06T10:43:05;1.50;;;1.40;;
55362;SDS011;41244;49.242;9.060;2023-08-06T10:45:36;1.70;;;1.30;;
55362;SDS011;41244;49.242;9.060;2023-08-06T10:48:03;1.08;;;1.08;;
55362;SDS011;41244;49.242;9.060;2023-08-06T10:50:29;1.77;;;1.50;;
55362;SDS011;41244;49.242;9.060;2023-08-06T10:52:56;1.60;;;1.50;;
55362;SDS011;41244;49.242;9.060;2023-08-06T10:55:26;1.73;;;1.42;;
55362;SDS011;41244;49.242;9.060;2023-08-06T10:57:54;1.63;;;1.52;;
55362;SDS011;41244;49.242;9.060;2023-08-06T11:00:23;1.80;;;1.70;;
55362;SDS011;41244;49.242;9.060;2023-08-06T11:02:52;1.40;;;1.35;;
55362;SDS011;41244;49.242;9.060;2023-08-06T11:05:18;2.00;;;1.90;;
55362;SDS011;41244;49.242;9.060;2023-08-06T11:07:44;1.55;;;1.45;;
55362;SDS011;41244;49.242;9.060;2023-08-06T11:10:11;1.73;;;1.63;;
55362;SDS011;41244;49.242;9.060;2023-08-06T11:12:38;1.60;;;1.50;;
55362;SDS011;41244;49.242;9.060;2023-08-06T11:15:04;1.40;;;1.40;;
55362;SDS011;41244;49.242;9.060;2023-08-06T11:17:32;1.98;;;1.88;;
55362;SDS011;41244;49.242;9.060;2023-08-06T11:19:59;1.80;;;1.70;;
55362;SDS011;41244;49.242;9.060;2023-08-06T11:22:30;4.00;;;2.45;;
55362;SDS011;41244;49.242;9.060;2023-08-06T11:24:56;7.90;;;3.33;;
55362;SDS011;41244;49.242;9.060;2023-08-06T11:27:22;1.60;;;1.60;;
55362;SDS011;41244;49.242;9.060;2023-08-06T11:29:48;2.40;;;2.20;;
55362;SDS011;41244;49.242;9.060;2023-08-06T11:32:14;2.40;;;2.20;;
55362;SDS011;41244;49.242;9.060;2023-08-06T11:34:40;1.90;;;1.80;;
55362;SDS011;41244;49.242;9.060;2023-08-06T11:37:06;2.55;;;2.08;;
55362;SDS011;41244;49.242;9.060;2023-08-06T11:39:36;1.90;;;1.70;;
55362;SDS011;41244;49.242;9.060;2023-08-06T11:42:03;2.20;;;2.00;;
55362;SDS011;41244;49.242;9.060;2023-08-06T11:44:31;2.60;;;2.40;;
55362;SDS011;41244;49.242;9.060;2023-08-06T11:47:01;2.47;;;2.10;;
55362;SDS011;41244;49.242;9.060;2023-08-06T11:49:44;2.25;;;2.05;;
55362;SDS011;41244;49.242;9.060;2023-08-06T11:52:18;2.63;;;2.13;;
55362;SDS011;41244;49.242;9.060;2023-08-06T11:55:05;3.58;;;2.33;;
55362;SDS011;41244;49.242;9.060;2023-08-06T11:57:35;2.38;;;2.00;;
55362;SDS011;41244;49.242;9.060;2023-08-06T12:00:05;2.65;;;2.30;;
55362;SDS011;41244;49.242;9.060;2023-08-06T12:02:33;2.70;;;2.28;;
55362;SDS011;41244;49.242;9.060;2023-08-06T12:05:03;4.65;;;2.67;;
55362;SDS011;41244;49.242;9.060;2023-08-06T12:07:36;3.75;;;2.50;;
55362;SDS011;41244;49.242;9.060;2023-08-06T12:10:09;3.33;;;2.50;;
55362;SDS011;41244;49.242;9.060;2023-08-06T12:12:37;3.10;;;2.80;;
55362;SDS011;41244;49.242;9.060;2023-08-06T12:15:03;3.78;;;2.83;;
55362;SDS011;41244;49.242;9.060;2023-08-06T12:17:31;6.45;;;3.13;;
55362;SDS011;41244;49.242;9.060;2023-08-06T12:19:57;4.35;;;2.70;;
55362;SDS011;41244;49.242;9.060;2023-08-06T12:22:23;4.32;;;3.00;;
55362;SDS011;41244;49.242;9.060;2023-08-06T12:24:49;5.18;;;3.30;;
55362;SDS011;41244;49.242;9.060;2023-08-06T12:27:15;7.88;;;4.80;;
55362;SDS011;41244;49.242;9.060;2023-08-06T12:29:44;4.75;;;3.33;;
55362;SDS011;41244;49.242;9.060;2023-08-06T12:32:14;4.78;;;3.17;;
55362;SDS011;41244;49.242;9.060;2023-08-06T12:34:41;4.43;;;3.50;;
55362;SDS011;41244;49.242;9.060;2023-08-06T12:37:08;3.50;;;3.03;;
55362;SDS011;41244;49.242;9.060;2023-08-06T12:39:37;3.85;;;2.80;;
55362;SDS011;41244;49.242;9.060;2023-08-06T12:42:03;4.22;;;3.20;;
55362;SDS011;41244;49.242;9.060;2023-08-06T12:44:30;5.07;;;3.45;;
55362;SDS011;41244;49.242;9.060;2023-08-06T12:46:57;3.65;;;3.05;;
55362;SDS011;41244;49.242;9.060;2023-08-06T12:49:23;5.32;;;3.05;;
55362;SDS011;41244;49.242;9.060;2023-08-06T12:51:50;4.20;;;3.30;;
55362;SDS011;41244;49.242;9.060;2023-08-06T12:54:17;4.88;;;3.40;;
55362;SDS011;41244;49.242;9.060;2023-08-06T12:56:46;3.95;;;3.42;;
55362;SDS011;41244;49.242;9.060;2023-08-06T12:59:13;6.60;;;3.75;;
55362;SDS011;41244;49.242;9.060;2023-08-06T13:01:40;3.97;;;3.30;;
55362;SDS011;41244;49.242;9.060;2023-08-06T13:04:06;6.47;;;3.47;;
55362;SDS011;41244;49.242;9.060;2023-08-06T13:06:32;6.47;;;3.97;;
55362;SDS011;41244;49.242;9.060;2023-08-06T13:09:11;5.10;;;3.13;;
55362;SDS011;41244;49.242;9.060;2023-08-06T13:11:38;5.28;;;3.50;;
55362;SDS011;41244;49.242;9.060;2023-08-06T13:14:05;4.43;;;3.25;;
55362;SDS011;41244;49.242;9.060;2023-08-06T13:16:36;6.95;;;3.80;;
55362;SDS011;41244;49.242;9.060;2023-08-06T13:19:03;7.63;;;4.82;;
55362;SDS011;41244;49.242;9.060;2023-08-06T13:21:31;8.55;;;4.47;;
55362;SDS011;41244;49.242;9.060;2023-08-06T13:24:26;4.43;;;3.40;;
55362;SDS011;41244;49.242;9.060;2023-08-06T13:26:52;4.32;;;3.70;;
55362;SDS011;41244;49.242;9.060;2023-08-06T13:29:18;9.60;;;3.95;;
55362;SDS011;41244;49.242;9.060;2023-08-06T13:31:43;4.30;;;3.60;;
55362;SDS011;41244;49.242;9.060;2023-08-06T13:34:09;5.00;;;3.55;;
55362;SDS011;41244;49.242;9.060;2023-08-06T13:36:35;5.38;;;3.42;;
55362;SDS011;41244;49.242;9.060;2023-08-06T13:39:01;5.10;;;3.80;;
55362;SDS011;41244;49.242;9.060;2023-08-06T13:41:28;5.22;;;3.55;;
55362;SDS011;41244;49.242;9.060;2023-08-06T13:43:54;7.28;;;3.53;;
55362;SDS011;41244;49.242;9.060;2023-08-06T13:46:20;5.22;;;3.80;;
55362;SDS011;41244;49.242;9.060;2023-08-06T13:48:46;3.67;;;3.20;;
55362;SDS011;41244;49.242;9.060;2023-08-06T13:51:15;4.45;;;3.70;;
55362;SDS011;41244;49.242;9.060;2023-08-06T13:53:41;6.72;;;3.70;;
55362;SDS011;41244;49.242;9.060;2023-08-06T13:56:08;3.35;;;3.05;;
55362;SDS011;41244;49.242;9.060;2023-08-06T13:58:35;6.45;;;2.90;;
55362;SDS011;41244;49.242;9.060;2023-08-06T14:01:01;4.38;;;2.80;;
55362;SDS011;41244;49.242;9.060;2023-08-06T14:03:26;4.82;;;2.95;;
55362;SDS011;41244;49.242;9.060;2023-08-06T14:05:52;3.40;;;2.90;;
55362;SDS011;41244;49.242;9.060;2023-08-06T14:08:21;4.38;;;2.45;;
55362;SDS011;41244;49.242;9.060;2023-08-06T14:10:53;3.95;;;2.45;;
55362;SDS011;41244;49.242;9.060;2023-08-06T14:13:19;3.85;;;2.20;;
55362;SDS011;41244;49.242;9.060;2023-08-06T14:15:46;4.82;;;2.90;;
55362;SDS011;41244;49.242;9.060;2023-08-06T14:18:13;4.32;;;2.30;;
55362;SDS011;41244;49.242;9.060;2023-08-06T14:20:40;4.57;;;2.47;;
55362;SDS011;41244;49.242;9.060;2023-08-06T14:23:06;5.88;;;3.35;;
55362;SDS011;41244;49.242;9.060;2023-08-06T14:25:32;2.88;;;2.40;;
55362;SDS011;41244;49.242;9.060;2023-08-06T14:27:58;2.95;;;2.60;;
55362;SDS011;41244;49.242;9.060;2023-08-06T14:30:23;5.32;;;2.47;;
55362;SDS011;41244;49.242;9.060;2023-08-06T14:32:49;4.10;;;2.60;;
55362;SDS011;41244;49.242;9.060;2023-08-06T14:35:15;2.40;;;2.20;;
55362;SDS011;41244;49.242;9.060;2023-08-06T14:37:41;4.07;;;2.60;;
55362;SDS011;41244;49.242;9.060;2023-08-06T14:40:07;2.72;;;2.30;;
55362;SDS011;41244;49.242;9.060;2023-08-06T14:42:33;4.18;;;2.20;;
55362;SDS011;41244;49.242;9.060;2023-08-06T14:44:59;2.17;;;2.00;;
55362;SDS011;41244;49.242;9.060;2023-08-06T14:47:25;2.50;;;2.30;;
55362;SDS011;41244;49.242;9.060;2023-08-06T14:49:51;2.55;;;2.35;;
55362;SDS011;41244;49.242;9.060;2023-08-06T14:52:16;5.22;;;3.05;;
55362;SDS011;41244;49.242;9.060;2023-08-06T14:54:42;2.58;;;2.20;;